Time;durP1;ratioP1;P1;durP2;ratioP2;P2;SDS_P1;SDS_P2;PMS_P1;PMS_P2;Temp;Humidity;BMP_temperature;BMP_pressure;BME280_temperature;BME280_humidity;BME280_pressure;Samples;Min_cycle;Max_cycle;Signal;HPM_P1;HPM_P2
2021/09/16 00:01:31;;;;;;;5.30;4.80;;;19.60;99.90;;;;;;5019858;28;20165;-83
2021/09/16 00:03:56;;;;;;;5.70;4.90;;;19.60;99.90;;;;;;5020752;28;20248;-84
2021/09/16 00:06:22;;;;;;;4.53;4.13;;;19.70;99.90;;;;;;5020260;28;20169;-84
2021/09/16 00:08:48;;;;;;;5.83;4.70;;;19.70;99.90;;;;;;5020897;28;20189;-84
2021/09/16 00:11:14;;;;;;;12.93;4.87;;;19.60;99.90;;;;;;5020526;28;20641;-84
2021/09/16 00:13:40;;;;;;;5.20;4.80;;;19.40;99.90;;;;;;5020332;28;20164;-83
2021/09/16 00:16:05;;;;;;;8.90;4.53;;;19.40;99.90;;;;;;5020176;28;20165;-84
2021/09/16 00:18:32;;;;;;;10.13;6.50;;;19.40;99.90;;;;;;5017849;28;20157;-84
2021/09/16 00:20:57;;;;;;;5.57;4.23;;;19.40;99.90;;;;;;5019978;28;20190;-83
2021/09/16 00:23:23;;;;;;;5.40;4.67;;;19.40;99.90;;;;;;5019592;28;20393;-84
2021/09/16 00:25:49;;;;;;;5.30;4.80;;;19.50;99.90;;;;;;5019615;28;20280;-84
2021/09/16 00:28:15;;;;;;;7.83;4.20;;;19.40;99.90;;;;;;5019684;28;20260;-83
2021/09/16 00:30:41;;;;;;;5.37;4.40;;;19.30;99.90;;;;;;5019954;28;20570;-84
2021/09/16 00:33:06;;;;;;;7.37;5.63;;;19.30;99.90;;;;;;5019559;28;20158;-83
2021/09/16 00:35:33;;;;;;;5.13;4.73;;;19.20;99.90;;;;;;5018538;28;20626;-83
2021/09/16 00:37:58;;;;;;;7.20;4.93;;;19.10;99.90;;;;;;5019335;28;20516;-84
2021/09/16 00:40:25;;;;;;;6.60;5.23;;;19.10;99.90;;;;;;5019626;28;20392;-84
2021/09/16 00:42:50;;;;;;;5.73;4.70;;;19.10;99.90;;;;;;5018528;28;20169;-83
2021/09/16 00:45:16;;;;;;;10.53;5.33;;;19.00;99.90;;;;;;5019559;28;20454;-84
2021/09/16 00:47:46;;;;;;;5.17;4.70;;;19.00;99.90;;;;;;5019772;28;20197;-84
2021/09/16 00:50:14;;;;;;;6.77;4.60;;;18.90;99.90;;;;;;5019466;28;20211;-84
2021/09/16 00:52:41;;;;;;;6.40;4.93;;;18.90;99.90;;;;;;5019880;28;20538;-83
2021/09/16 00:55:09;;;;;;;6.93;6.33;;;19.00;99.90;;;;;;5018175;28;20747;-84
2021/09/16 00:57:36;;;;;;;5.47;4.97;;;19.10;99.90;;;;;;5018551;28;20960;-84
2021/09/16 01:00:06;;;;;;;5.33;4.60;;;19.10;99.90;;;;;;5020687;28;20396;-84
2021/09/16 01:02:32;;;;;;;4.20;3.90;;;19.10;99.90;;;;;;5021394;28;20535;-84
2021/09/16 01:04:58;;;;;;;7.97;5.93;;;19.10;99.90;;;;;;5020288;28;20490;-83
2021/09/16 01:07:24;;;;;;;5.53;4.80;;;19.10;99.90;;;;;;5021330;28;20385;-84
2021/09/16 01:09:50;;;;;;;4.87;4.47;;;19.10;99.90;;;;;;5028690;28;20257;-83
2021/09/16 01:12:16;;;;;;;5.90;5.30;;;19.10;99.90;;;;;;5019819;28;20424;-83
2021/09/16 01:14:43;;;;;;;5.00;4.30;;;19.20;99.90;;;;;;5018924;28;20176;-84
2021/09/16 01:17:09;;;;;;;7.30;4.43;;;19.10;99.90;;;;;;5019078;28;20223;-84
2021/09/16 01:19:35;;;;;;;7.83;5.20;;;19.10;99.90;;;;;;5018147;28;20404;-83
2021/09/16 01:22:01;;;;;;;6.67;5.30;;;19.20;99.90;;;;;;5019295;28;20169;-83
2021/09/16 01:24:26;;;;;;;4.60;4.10;;;19.10;99.90;;;;;;5018941;28;20626;-83
2021/09/16 01:26:52;;;;;;;5.00;4.47;;;19.20;99.90;;;;;;5020454;28;20193;-83
2021/09/16 01:29:18;;;;;;;5.77;4.40;;;19.30;99.90;;;;;;5019732;28;20169;-84
2021/09/16 01:31:46;;;;;;;4.40;3.73;;;19.10;99.90;;;;;;5020021;28;20157;-83
2021/09/16 01:34:14;;;;;;;5.87;5.27;;;19.10;99.90;;;;;;5020203;28;20161;-82
2021/09/16 01:36:42;;;;;;;6.83;4.73;;;19.00;99.90;;;;;;5025813;28;20823;-83
2021/09/16 01:39:10;;;;;;;4.80;4.40;;;19.00;99.90;;;;;;5024599;28;20396;-82
2021/09/16 01:41:36;;;;;;;5.37;4.77;;;19.10;99.90;;;;;;5023104;28;20397;-83
2021/09/16 01:44:03;;;;;;;6.03;5.50;;;19.00;99.90;;;;;;5018761;28;20454;-84
2021/09/16 01:46:29;;;;;;;5.60;3.67;;;19.10;99.90;;;;;;5018535;28;20461;-84
2021/09/16 01:48:59;;;;;;;5.53;5.00;;;19.10;99.90;;;;;;5019177;28;20393;-83
2021/09/16 01:51:25;;;;;;;5.37;4.80;;;19.20;99.90;;;;;;5019052;28;20399;-83
2021/09/16 01:53:50;;;;;;;5.83;5.23;;;19.40;99.90;;;;;;5019071;28;20870;-83
2021/09/16 01:56:16;;;;;;;5.27;4.77;;;19.30;99.90;;;;;;5018523;28;20311;-83
2021/09/16 01:58:42;;;;;;;10.17;4.47;;;19.30;99.90;;;;;;5018777;28;20204;-83
2021/09/16 02:01:08;;;;;;;7.17;5.23;;;19.40;99.90;;;;;;5018666;28;20166;-83
2021/09/16 02:03:35;;;;;;;14.60;4.80;;;19.40;99.90;;;;;;5018773;28;20256;-83
2021/09/16 02:06:00;;;;;;;5.70;5.20;;;19.50;99.90;;;;;;5019041;28;20199;-83
2021/09/16 02:08:26;;;;;;;6.67;5.10;;;19.50;99.90;;;;;;5019161;28;20518;-83
2021/09/16 02:10:52;;;;;;;5.37;4.87;;;19.50;99.90;;;;;;5016758;28;20173;-83
2021/09/16 02:13:18;;;;;;;8.13;5.03;;;19.40;99.90;;;;;;5017081;28;20166;-83
2021/09/16 02:15:44;;;;;;;6.77;5.27;;;19.50;99.90;;;;;;5018240;28;20173;-83
2021/09/16 02:18:10;;;;;;;6.10;5.40;;;19.50;99.90;;;;;;5018345;28;20400;-83
2021/09/16 02:20:37;;;;;;;5.97;5.37;;;19.30;99.90;;;;;;5017366;28;20603;-83
2021/09/16 02:23:02;;;;;;;5.80;5.30;;;19.20;99.90;;;;;;5018132;28;20176;-83
2021/09/16 02:25:28;;;;;;;6.83;5.50;;;19.40;99.90;;;;;;5018084;28;20440;-83
2021/09/16 02:27:54;;;;;;;5.13;4.70;;;19.40;99.90;;;;;;5018592;28;20177;-83
2021/09/16 02:30:20;;;;;;;5.63;5.13;;;19.40;99.90;;;;;;5020929;28;20607;-83
2021/09/16 02:32:46;;;;;;;7.50;6.87;;;19.50;99.90;;;;;;5021076;28;20439;-83
2021/09/16 02:35:12;;;;;;;6.83;5.73;;;19.50;99.90;;;;;;5022280;28;20173;-83
2021/09/16 02:37:39;;;;;;;6.90;6.30;;;19.50;99.90;;;;;;5021956;28;20491;-83
2021/09/16 02:40:10;;;;;;;5.73;5.20;;;19.50;99.90;;;;;;5021002;28;20401;-83
2021/09/16 02:42:36;;;;;;;6.43;4.97;;;19.50;99.90;;;;;;5021808;28;20895;-83
2021/09/16 02:45:03;;;;;;;6.40;5.80;;;19.50;99.90;;;;;;5022196;28;20452;-83
2021/09/16 02:47:29;;;;;;;5.30;4.80;;;19.50;99.90;;;;;;5020645;28;20415;-83
2021/09/16 02:49:55;;;;;;;6.60;6.00;;;19.50;99.90;;;;;;5021973;28;20392;-83
2021/09/16 02:52:21;;;;;;;7.63;6.90;;;19.40;99.90;;;;;;5021758;28;20165;-83
2021/09/16 02:54:47;;;;;;;7.93;5.67;;;19.40;99.90;;;;;;5021168;28;20177;-83
2021/09/16 02:57:12;;;;;;;7.17;5.73;;;19.50;99.90;;;;;;5022004;28;20233;-83
2021/09/16 02:59:38;;;;;;;7.50;5.23;;;19.50;99.90;;;;;;5026222;28;20609;-83
2021/09/16 03:02:04;;;;;;;6.30;5.80;;;19.50;99.90;;;;;;5027706;28;20169;-83
2021/09/16 03:04:30;;;;;;;5.50;5.00;;;19.50;99.90;;;;;;5026709;28;20193;-83
2021/09/16 03:06:56;;;;;;;5.07;4.63;;;19.50;99.90;;;;;;5021344;28;20450;-83
2021/09/16 03:09:23;;;;;;;6.47;5.77;;;19.50;99.90;;;;;;5021629;28;20193;-83
2021/09/16 03:11:49;;;;;;;6.97;6.10;;;19.40;99.90;;;;;;5022409;28;20162;-83
2021/09/16 03:14:15;;;;;;;8.87;6.33;;;19.30;99.90;;;;;;5034340;28;20400;-83
2021/09/16 03:16:41;;;;;;;5.90;5.30;;;19.40;99.90;;;;;;5007029;28;20495;-83
2021/09/16 03:19:08;;;;;;;6.97;5.83;;;19.30;99.90;;;;;;5020311;28;20436;-83
2021/09/16 03:21:34;;;;;;;6.77;5.37;;;19.20;99.90;;;;;;5021008;28;20166;-83
2021/09/16 03:24:00;;;;;;;8.33;6.70;;;19.10;99.90;;;;;;5021026;28;20484;-83
2021/09/16 03:26:25;;;;;;;9.40;6.67;;;19.10;99.90;;;;;;5021144;28;20455;-83
2021/09/16 03:28:51;;;;;;;9.50;5.90;;;19.00;99.90;;;;;;5019908;28;20165;-83
2021/09/16 03:31:17;;;;;;;11.13;7.10;;;19.10;99.90;;;;;;5022679;28;20224;-83
2021/09/16 03:33:43;;;;;;;8.40;6.20;;;19.20;99.90;;;;;;5020587;28;20634;-83
2021/09/16 03:36:09;;;;;;;6.60;5.67;;;19.30;99.90;;;;;;5020501;28;20173;-83
2021/09/16 03:38:35;;;;;;;9.03;6.33;;;19.10;99.90;;;;;;5019976;28;20173;-83
2021/09/16 03:41:03;;;;;;;6.60;6.00;;;19.00;99.90;;;;;;5020283;28;20778;-83
2021/09/16 03:43:29;;;;;;;8.63;6.20;;;19.00;99.90;;;;;;5021069;28;20169;-83
2021/09/16 03:45:55;;;;;;;7.93;5.40;;;18.90;99.90;;;;;;5023528;28;20444;-83
2021/09/16 03:48:21;;;;;;;7.30;6.60;;;18.90;99.90;;;;;;5021772;28;20666;-83
2021/09/16 03:50:47;;;;;;;6.53;5.87;;;18.90;99.90;;;;;;5019458;28;20496;-83
2021/09/16 03:53:13;;;;;;;7.97;7.17;;;18.80;99.90;;;;;;5020389;28;20432;-83
2021/09/16 03:55:40;;;;;;;9.73;6.10;;;18.80;99.90;;;;;;5020043;28;20165;-83
2021/09/16 03:58:05;;;;;;;7.90;6.80;;;18.80;99.90;;;;;;5019784;28;20464;-83
2021/09/16 04:00:32;;;;;;;6.90;6.20;;;18.80;99.90;;;;;;5020681;28;20400;-83
2021/09/16 04:03:06;;;;;;;6.97;6.27;;;18.80;99.90;;;;;;5020373;28;20170;-83
2021/09/16 04:05:32;;;;;;;8.47;7.67;;;18.80;99.90;;;;;;5019773;28;20800;-83
2021/09/16 04:07:58;;;;;;;12.13;7.00;;;18.80;99.90;;;;;;5018532;28;20416;-83
2021/09/16 04:10:24;;;;;;;7.53;6.90;;;18.70;99.90;;;;;;5020081;28;20392;-83
2021/09/16 04:12:50;;;;;;;8.87;6.87;;;18.70;99.90;;;;;;5019213;28;20257;-82
2021/09/16 04:15:15;;;;;;;6.70;5.43;;;18.70;99.90;;;;;;5020318;28;20193;-83
2021/09/16 04:17:41;;;;;;;8.40;7.50;;;18.70;99.90;;;;;;5018975;28;20166;-83
2021/09/16 04:20:07;;;;;;;8.83;7.07;;;18.70;99.90;;;;;;5021493;28;20169;-83
2021/09/16 04:22:34;;;;;;;10.60;7.50;;;18.70;99.90;;;;;;5021849;28;20232;-83
2021/09/16 04:25:00;;;;;;;6.57;5.87;;;18.80;99.90;;;;;;5021117;28;20471;-83
2021/09/16 04:27:26;;;;;;;8.40;7.13;;;18.80;99.90;;;;;;5019144;28;20401;-83
2021/09/16 04:29:52;;;;;;;12.83;8.13;;;18.90;99.90;;;;;;5019417;28;20519;-83
2021/09/16 04:32:17;;;;;;;17.03;7.80;;;18.90;99.90;;;;;;5019731;28;20507;-83
2021/09/16 04:34:43;;;;;;;10.63;7.50;;;19.00;99.90;;;;;;5020716;28;20184;-83
2021/09/16 04:37:09;;;;;;;8.50;7.60;;;19.10;99.90;;;;;;5019872;28;20185;-83
2021/09/16 04:39:35;;;;;;;7.60;6.70;;;19.10;99.90;;;;;;5018954;28;20576;-82
2021/09/16 04:42:00;;;;;;;7.03;6.33;;;19.00;99.90;;;;;;5018628;28;20283;-83
2021/09/16 04:44:26;;;;;;;11.40;7.40;;;18.90;99.90;;;;;;5019584;28;20196;-83
2021/09/16 04:46:52;;;;;;;14.70;7.50;;;18.90;99.90;;;;;;5019935;28;20168;-82
2021/09/16 04:49:18;;;;;;;7.83;7.03;;;19.00;99.90;;;;;;5020241;28;20232;-83
2021/09/16 04:51:44;;;;;;;8.97;6.50;;;19.10;99.90;;;;;;5020503;28;20166;-83
2021/09/16 04:54:11;;;;;;;7.53;6.83;;;19.20;99.90;;;;;;5019470;28;20513;-83
2021/09/16 04:56:36;;;;;;;8.70;7.80;;;19.00;99.90;;;;;;5018261;28;20939;-83
2021/09/16 04:59:02;;;;;;;11.83;7.40;;;19.00;99.90;;;;;;5020299;28;20385;-83
2021/09/16 05:01:28;;;;;;;7.60;6.80;;;18.90;99.90;;;;;;5019483;28;20166;-83
2021/09/16 05:03:54;;;;;;;8.90;6.23;;;18.80;99.90;;;;;;5020408;28;20168;-83
2021/09/16 05:06:20;;;;;;;8.07;7.27;;;18.90;99.90;;;;;;5019666;28;20472;-83
2021/09/16 05:08:46;;;;;;;6.70;6.10;;;19.00;99.90;;;;;;5019692;28;20597;-83
2021/09/16 05:11:13;;;;;;;7.33;6.17;;;19.20;99.90;;;;;;5019363;28;20169;-83
2021/09/16 05:13:39;;;;;;;6.90;6.30;;;19.20;99.90;;;;;;5020534;28;20160;-83
2021/09/16 05:16:04;;;;;;;8.90;6.93;;;19.30;99.90;;;;;;5018104;28;20528;-83
2021/09/16 05:18:30;;;;;;;7.00;6.40;;;19.30;99.90;;;;;;5019057;28;20173;-83
2021/09/16 05:20:56;;;;;;;8.73;6.87;;;19.40;99.90;;;;;;5019474;28;20179;-84
2021/09/16 05:23:22;;;;;;;7.83;7.13;;;19.40;99.90;;;;;;5019774;28;20433;-83
2021/09/16 05:25:48;;;;;;;8.37;7.57;;;19.40;99.90;;;;;;5018420;28;20642;-82
2021/09/16 05:28:14;;;;;;;6.87;6.27;;;19.40;99.90;;;;;;5018287;28;20237;-83
2021/09/16 05:30:40;;;;;;;7.63;6.80;;;19.50;99.90;;;;;;5019453;28;20595;-82
2021/09/16 05:33:09;;;;;;;7.70;6.90;;;19.40;99.90;;;;;;5020117;28;20401;-82
2021/09/16 05:35:36;;;;;;;14.60;8.30;;;19.20;99.90;;;;;;5020084;28;20404;-83
2021/09/16 05:38:03;;;;;;;7.63;6.47;;;19.30;99.90;;;;;;5019618;28;20432;-85
2021/09/16 05:40:29;;;;;;;11.43;7.90;;;19.40;99.90;;;;;;5019505;28;20428;-84
2021/09/16 05:42:55;;;;;;;8.00;7.40;;;19.30;99.90;;;;;;5018919;28;20503;-83
2021/09/16 05:45:21;;;;;;;10.43;7.33;;;19.30;99.90;;;;;;5017483;28;20515;-84
2021/09/16 05:47:46;;;;;;;8.93;7.47;;;19.40;99.90;;;;;;5018591;28;20192;-84
2021/09/16 05:50:12;;;;;;;13.87;8.93;;;19.50;99.90;;;;;;5019288;28;20169;-83
2021/09/16 05:52:38;;;;;;;9.00;7.60;;;19.50;99.90;;;;;;5018803;28;20173;-82
2021/09/16 05:55:06;;;;;;;8.30;7.20;;;19.50;99.90;;;;;;5020000;28;20197;-83
2021/09/16 05:57:32;;;;;;;9.27;8.27;;;19.60;99.90;;;;;;5014088;28;20279;-83
2021/09/16 06:00:00;;;;;;;8.50;7.57;;;19.60;99.90;;;;;;5019274;28;20448;-83
2021/09/16 06:02:26;;;;;;;12.23;7.77;;;19.60;99.90;;;;;;5011404;28;20428;-83
2021/09/16 06:04:52;;;;;;;9.83;8.93;;;19.60;99.90;;;;;;5020691;28;20207;-84
2021/09/16 06:07:18;;;;;;;8.63;7.77;;;19.60;99.90;;;;;;5039384;28;20173;-84
2021/09/16 06:09:43;;;;;;;9.10;8.20;;;19.70;99.90;;;;;;5023412;28;20642;-83
2021/09/16 06:12:09;;;;;;;9.30;8.00;;;19.60;99.90;;;;;;5024856;28;20583;-84
2021/09/16 06:14:35;;;;;;;10.77;9.20;;;19.60;99.90;;;;;;5031364;28;20192;-84
2021/09/16 06:17:01;;;;;;;11.13;8.57;;;19.60;99.90;;;;;;5021402;28;20587;-83
2021/09/16 06:19:27;;;;;;;10.73;9.63;;;19.40;99.90;;;;;;5021571;28;20260;-83
2021/09/16 06:21:56;;;;;;;17.03;10.93;;;19.20;99.90;;;;;;5016015;28;20427;-83
2021/09/16 06:24:22;;;;;;;11.07;8.90;;;19.00;99.90;;;;;;5020282;28;20428;-83
2021/09/16 06:26:47;;;;;;;11.10;9.03;;;19.10;99.90;;;;;;5014269;28;20423;-84
2021/09/16 06:29:13;;;;;;;10.73;9.07;;;19.20;99.90;;;;;;5017979;28;20503;-83
2021/09/16 06:31:39;;;;;;;12.37;9.73;;;19.10;99.90;;;;;;5019167;28;20193;-83
2021/09/16 06:34:05;;;;;;;12.93;11.63;;;19.20;99.90;;;;;;5022324;28;20177;-83
2021/09/16 06:36:31;;;;;;;12.70;10.50;;;18.80;99.90;;;;;;5021581;28;20177;-83
2021/09/16 06:38:56;;;;;;;10.80;9.17;;;18.60;99.90;;;;;;5016854;28;20174;-83
2021/09/16 06:41:22;;;;;;;12.00;9.73;;;18.70;99.90;;;;;;5015941;28;20197;-83
2021/09/16 06:43:51;;;;;;;15.07;9.80;;;18.80;99.90;;;;;;5021809;28;20204;-83
2021/09/16 06:46:17;;;;;;;16.37;10.87;;;18.80;99.90;;;;;;5030209;28;20204;-83
2021/09/16 06:48:43;;;;;;;14.37;10.33;;;18.80;99.90;;;;;;5032445;28;20496;-82
2021/09/16 06:51:08;;;;;;;12.23;10.97;;;18.80;99.90;;;;;;5017967;28;20165;-84
2021/09/16 06:53:34;;;;;;;14.70;11.50;;;18.70;99.90;;;;;;5016916;28;20173;-84
2021/09/16 06:56:01;;;;;;;14.33;12.80;;;18.70;99.90;;;;;;5020492;28;20185;-83
2021/09/16 06:58:26;;;;;;;11.63;10.43;;;18.70;99.90;;;;;;5022581;28;20213;-84
2021/09/16 07:00:53;;;;;;;12.97;11.67;;;18.50;99.90;;;;;;5021120;28;20429;-83
2021/09/16 07:03:18;;;;;;;13.20;11.80;;;18.50;99.90;;;;;;5009859;28;20236;-84
2021/09/16 07:05:44;;;;;;;13.97;12.50;;;18.50;99.90;;;;;;5021577;28;20790;-83
2021/09/16 07:08:10;;;;;;;15.40;12.20;;;18.50;99.90;;;;;;5021985;28;20235;-84
2021/09/16 07:10:36;;;;;;;14.60;12.10;;;18.50;99.90;;;;;;5022042;28;20244;-83
2021/09/16 07:13:01;;;;;;;13.37;11.97;;;18.60;99.90;;;;;;5024285;28;20245;-83
2021/09/16 07:15:27;;;;;;;12.10;10.83;;;18.50;99.90;;;;;;5033491;28;20161;-82
2021/09/16 07:17:53;;;;;;;13.23;11.90;;;18.50;99.90;;;;;;5029691;28;20170;-84
2021/09/16 07:20:19;;;;;;;15.33;12.17;;;18.50;99.90;;;;;;5026585;28;20227;-84
2021/09/16 07:22:46;;;;;;;13.47;12.17;;;18.50;99.90;;;;;;5012416;28;20248;-84
2021/09/16 07:25:12;;;;;;;13.57;11.70;;;18.60;99.90;;;;;;5013447;28;20193;-84
2021/09/16 07:27:38;;;;;;;12.53;11.20;;;18.60;99.90;;;;;;5021133;28;20761;-84
2021/09/16 07:30:06;;;;;;;14.30;11.50;;;18.60;99.90;;;;;;5021200;28;20427;-84
2021/09/16 07:32:32;;;;;;;12.50;11.07;;;18.60;99.90;;;;;;5020906;28;20586;-84
2021/09/16 07:34:59;;;;;;;12.53;11.30;;;18.60;99.90;;;;;;5020170;28;20412;-84
2021/09/16 07:37:25;;;;;;;10.73;9.63;;;18.50;99.90;;;;;;5021136;28;20182;-83
2021/09/16 07:39:51;;;;;;;13.17;11.87;;;18.50;99.90;;;;;;5010062;28;20491;-82
2021/09/16 07:42:19;;;;;;;11.60;9.60;;;18.40;99.90;;;;;;5010000;28;20905;-84
2021/09/16 07:44:45;;;;;;;11.90;10.90;;;18.40;99.90;;;;;;5021311;28;20228;-84
2021/09/16 07:47:10;;;;;;;11.57;10.30;;;18.40;99.90;;;;;;5000521;28;20441;-84
2021/09/16 07:49:36;;;;;;;13.00;11.67;;;18.40;99.90;;;;;;5020096;28;20191;-84
2021/09/16 07:52:03;;;;;;;12.63;11.30;;;18.30;99.90;;;;;;5020395;28;20173;-84
2021/09/16 07:54:29;;;;;;;12.07;10.03;;;18.40;99.90;;;;;;5020851;28;20237;-84
2021/09/16 07:56:54;;;;;;;14.20;11.37;;;18.40;99.90;;;;;;5018133;28;20477;-84
2021/09/16 07:59:20;;;;;;;12.23;11.03;;;18.50;99.90;;;;;;5016510;28;20216;-84
2021/09/16 08:01:46;;;;;;;13.03;11.60;;;18.50;99.90;;;;;;5013970;28;20177;-84
2021/09/16 08:04:12;;;;;;;10.93;9.77;;;18.60;99.90;;;;;;5015175;28;20212;-84
2021/09/16 08:06:38;;;;;;;13.47;11.13;;;18.60;99.90;;;;;;5015273;28;20534;-84
2021/09/16 08:09:04;;;;;;;11.57;10.47;;;18.60;99.90;;;;;;5018700;28;20200;-84
2021/09/16 08:11:32;;;;;;;11.90;10.63;;;18.70;99.90;;;;;;5019190;28;20424;-84
2021/09/16 08:13:58;;;;;;;15.10;10.33;;;18.70;99.90;;;;;;5018731;28;20741;-84
2021/09/16 08:16:24;;;;;;;11.13;9.67;;;18.70;99.90;;;;;;5018810;28;20424;-84
2021/09/16 08:18:50;;;;;;;11.00;9.90;;;18.70;99.90;;;;;;5020073;28;20420;-84
2021/09/16 08:21:16;;;;;;;11.23;10.03;;;18.70;99.90;;;;;;5019254;28;20184;-83
2021/09/16 08:23:44;;;;;;;11.50;10.40;;;18.70;99.90;;;;;;5012855;28;20811;-83
2021/09/16 08:26:10;;;;;;;12.13;9.90;;;18.70;99.90;;;;;;5018080;28;20490;-83
2021/09/16 08:28:36;;;;;;;10.13;9.03;;;18.80;99.90;;;;;;5016605;28;20416;-84
2021/09/16 08:31:03;;;;;;;13.30;10.23;;;18.70;99.90;;;;;;5020690;28;20428;-83
2021/09/16 08:33:30;;;;;;;11.03;9.27;;;18.80;99.90;;;;;;4991632;28;20169;-84
2021/09/16 08:35:56;;;;;;;11.03;9.93;;;18.80;99.90;;;;;;5005692;28;20460;-83
2021/09/16 08:38:21;;;;;;;11.07;9.97;;;18.80;99.90;;;;;;5012087;28;20428;-84
2021/09/16 08:40:47;;;;;;;10.20;9.20;;;18.90;99.90;;;;;;5020997;28;20459;-83
2021/09/16 08:43:18;;;;;;;14.00;11.67;;;18.90;99.90;;;;;;5019813;28;20250;-83
2021/09/16 08:45:44;;;;;;;11.60;10.40;;;18.90;99.90;;;;;;5021436;28;20467;-81
2021/09/16 08:48:10;;;;;;;13.20;11.80;;;18.90;99.90;;;;;;5031659;28;20416;-83
2021/09/16 08:50:37;;;;;;;18.87;10.80;;;18.90;99.90;;;;;;5022590;28;21009;-84
2021/09/16 08:53:06;;;;;;;11.00;9.90;;;18.90;99.90;;;;;;5017959;28;20185;-84
2021/09/16 08:55:34;;;;;;;11.33;10.23;;;18.90;99.90;;;;;;5006212;28;20444;-84
2021/09/16 08:58:10;;;;;;;13.27;10.33;;;18.90;99.90;;;;;;5006665;28;20478;-84
2021/09/16 09:00:39;;;;;;;12.53;11.33;;;18.90;99.90;;;;;;5018984;28;20426;-84
2021/09/16 09:03:05;;;;;;;13.43;12.00;;;18.90;99.90;;;;;;4992819;28;20418;-84
2021/09/16 09:05:32;;;;;;;11.70;9.73;;;18.90;99.90;;;;;;5009947;28;20603;-85
2021/09/16 09:08:00;;;;;;;12.27;10.97;;;18.90;99.90;;;;;;5012831;28;20188;-84
2021/09/16 09:10:38;;;;;;;11.60;10.27;;;19.00;99.90;;;;;;5011008;28;20420;-84
2021/09/16 09:13:08;;;;;;;13.83;11.67;;;19.00;99.90;;;;;;5015785;28;20427;-84
2021/09/16 09:15:36;;;;;;;10.53;9.43;;;19.10;99.90;;;;;;5013238;28;20424;-84
2021/09/16 09:18:05;;;;;;;15.23;10.73;;;19.10;99.90;;;;;;5008356;28;20435;-83
2021/09/16 09:20:33;;;;;;;10.73;9.63;;;19.10;99.90;;;;;;5014671;28;20777;-84
2021/09/16 09:22:59;;;;;;;11.70;10.27;;;19.00;99.90;;;;;;5018781;28;20432;-84
2021/09/16 09:25:28;;;;;;;12.40;11.10;;;19.10;99.90;;;;;;5000827;28;20447;-84
2021/09/16 09:27:54;;;;;;;13.67;10.53;;;19.10;99.90;;;;;;5017410;28;20558;-84
2021/09/16 09:30:31;;;;;;;16.53;10.73;;;19.20;99.90;;;;;;5018618;28;20424;-84
2021/09/16 09:33:00;;;;;;;13.07;11.10;;;19.20;99.90;;;;;;5012265;28;20780;-84
2021/09/16 09:35:33;;;;;;;12.30;10.63;;;19.20;99.90;;;;;;5007905;28;20503;-83
2021/09/16 09:38:03;;;;;;;10.80;9.70;;;19.20;99.90;;;;;;5018410;28;20482;-84
2021/09/16 09:40:38;;;;;;;10.80;9.70;;;19.20;99.90;;;;;;5024414;28;20408;-83
2021/09/16 09:43:20;;;;;;;11.20;9.30;;;19.30;99.90;;;;;;5020124;28;20435;-83
2021/09/16 09:46:06;;;;;;;12.97;10.33;;;19.30;99.90;;;;;;5016094;28;20472;-84
2021/09/16 09:48:34;;;;;;;12.03;10.83;;;19.40;99.90;;;;;;5012141;28;20575;-84
2021/09/16 09:51:01;;;;;;;12.27;10.90;;;19.50;99.90;;;;;;5019477;28;20988;-84
2021/09/16 09:53:27;;;;;;;11.70;10.50;;;19.40;99.90;;;;;;5015240;28;20416;-84
2021/09/16 09:55:53;;;;;;;11.10;9.90;;;19.40;99.90;;;;;;5007864;28;20423;-84
2021/09/16 09:58:35;;;;;;;10.43;8.80;;;19.40;99.90;;;;;;5018534;28;20189;-84
2021/09/16 10:01:28;;;;;;;13.33;10.43;;;19.30;99.90;;;;;;5016601;28;20465;-84
2021/09/16 10:03:55;;;;;;;14.67;9.83;;;19.30;99.90;;;;;;5021426;28;20787;-82
2021/09/16 10:06:21;;;;;;;14.57;11.30;;;19.10;99.90;;;;;;5021951;28;20443;-84
2021/09/16 10:09:08;;;;;;;14.03;11.60;;;19.10;99.90;;;;;;5022046;28;20452;-84
2021/09/16 10:11:39;;;;;;;16.37;10.90;;;19.00;99.90;;;;;;5020743;28;20177;-84
2021/09/16 10:14:05;;;;;;;16.10;10.00;;;19.00;99.90;;;;;;5021989;28;20465;-83
2021/09/16 10:16:31;;;;;;;13.70;10.87;;;19.10;99.90;;;;;;5021260;28;20870;-82
2021/09/16 10:18:57;;;;;;;12.77;11.47;;;19.00;99.90;;;;;;5022064;28;20264;-84
2021/09/16 10:21:23;;;;;;;11.60;10.27;;;19.10;99.90;;;;;;5004356;28;20177;-83
2021/09/16 10:23:52;;;;;;;13.83;11.63;;;19.00;99.90;;;;;;5022278;28;20408;-83
2021/09/16 10:26:45;;;;;;;13.50;11.10;;;19.10;99.90;;;;;;5020273;28;20193;-84
2021/09/16 10:29:32;;;;;;;12.87;11.40;;;19.20;99.90;;;;;;5019302;28;20436;-83
2021/09/16 10:32:34;;;;;;;13.20;11.80;;;19.20;99.90;;;;;;5017441;28;20412;-84
2021/09/16 10:35:15;;;;;;;12.83;11.53;;;19.20;99.90;;;;;;5014454;28;20411;-84
2021/09/16 10:37:41;;;;;;;13.67;11.50;;;19.20;99.90;;;;;;4996628;28;20413;-84
2021/09/16 10:40:24;;;;;;;13.67;12.27;;;19.20;99.90;;;;;;5023510;28;20404;-83
2021/09/16 10:42:54;;;;;;;14.43;11.67;;;19.20;99.90;;;;;;5018348;28;20180;-84
2021/09/16 10:45:33;;;;;;;18.70;12.80;;;19.20;99.90;;;;;;5018796;28;20966;-83
2021/09/16 10:48:29;;;;;;;17.87;13.60;;;19.30;99.90;;;;;;5021304;28;20773;-83
2021/09/16 10:51:01;;;;;;;16.00;11.80;;;19.40;99.90;;;;;;5020173;28;20428;-84
2021/09/16 10:53:41;;;;;;;15.73;12.40;;;19.40;99.90;;;;;;5021481;28;20415;-84
2021/09/16 10:56:35;;;;;;;16.13;14.33;;;19.50;99.90;;;;;;5021740;28;20539;-84
2021/09/16 10:59:01;;;;;;;14.40;12.90;;;19.50;99.90;;;;;;5018723;28;20447;-84
2021/09/16 11:01:54;;;;;;;16.73;13.33;;;19.50;99.90;;;;;;5021174;28;20420;-84
2021/09/16 11:04:21;;;;;;;15.40;12.57;;;19.50;99.90;;;;;;5037178;28;20212;-83
2021/09/16 11:06:48;;;;;;;16.63;13.07;;;19.50;99.90;;;;;;5022102;28;20485;-83
2021/09/16 11:09:24;;;;;;;14.40;12.90;;;19.50;99.90;;;;;;5014150;28;20568;-83
2021/09/16 11:11:58;;;;;;;16.03;12.77;;;19.50;99.90;;;;;;5020524;28;20506;-84
2021/09/16 11:14:35;;;;;;;10.87;8.63;;;19.50;99.90;;;;;;5000655;28;20424;-84
2021/09/16 11:17:04;;;;;;;6.57;4.90;;;19.40;99.90;;;;;;4994948;28;20417;-84
2021/09/16 11:19:30;;;;;;;5.03;4.50;;;19.20;99.90;;;;;;5008968;28;20819;-83
2021/09/16 11:22:08;;;;;;;6.03;5.13;;;19.10;99.90;;;;;;4995575;28;20775;-84
2021/09/16 11:24:40;;;;;;;10.37;5.50;;;18.70;99.90;;;;;;5020873;28;20455;-84
2021/09/16 11:27:10;;;;;;;5.50;5.00;;;18.50;99.90;;;;;;5021971;28;20837;-84
2021/09/16 11:29:46;;;;;;;6.80;6.20;;;18.50;99.90;;;;;;5020498;28;20419;-84
2021/09/16 11:32:14;;;;;;;7.23;6.63;;;18.50;99.90;;;;;;5001249;28;20427;-84
2021/09/16 11:34:57;;;;;;;6.77;5.97;;;18.50;99.90;;;;;;5019731;28;20511;-84
2021/09/16 11:37:32;;;;;;;8.73;7.67;;;18.60;99.90;;;;;;5021916;28;20416;-84
2021/09/16 11:40:04;;;;;;;9.33;8.27;;;18.60;99.90;;;;;;5021139;28;20440;-84
2021/09/16 11:42:33;;;;;;;8.90;6.93;;;18.60;99.90;;;;;;5019194;28;20511;-84
2021/09/16 11:45:03;;;;;;;8.03;7.20;;;18.60;99.90;;;;;;5034657;28;20953;-84
2021/09/16 11:47:30;;;;;;;10.20;6.80;;;18.60;99.90;;;;;;5019115;28;20508;-84
2021/09/16 11:49:56;;;;;;;10.97;7.13;;;18.60;99.90;;;;;;5019403;28;20392;-84
2021/09/16 11:52:23;;;;;;;10.30;7.43;;;18.50;99.90;;;;;;5021557;28;20453;-84
2021/09/16 11:55:09;;;;;;;10.60;9.10;;;18.40;99.90;;;;;;5020891;28;20403;-84
2021/09/16 11:57:58;;;;;;;10.30;7.73;;;18.10;99.90;;;;;;5020462;28;20456;-84
2021/09/16 12:00:29;;;;;;;7.80;7.10;;;18.20;99.90;;;;;;5019706;28;20449;-84
2021/09/16 12:02:56;;;;;;;7.30;6.70;;;18.10;99.90;;;;;;4991514;28;20420;-84
2021/09/16 12:05:34;;;;;;;7.37;6.60;;;18.10;99.90;;;;;;5020096;28;20452;-84
2021/09/16 12:08:01;;;;;;;8.67;7.77;;;18.00;99.90;;;;;;5002292;28;20435;-84
2021/09/16 12:10:42;;;;;;;9.27;8.27;;;18.00;99.90;;;;;;5002261;28;20413;-84
2021/09/16 12:13:10;;;;;;;9.90;8.17;;;18.00;99.90;;;;;;5020552;28;20395;-84
2021/09/16 12:15:36;;;;;;;10.80;7.70;;;18.00;99.90;;;;;;5020054;28;20404;-84
2021/09/16 12:18:04;;;;;;;8.77;7.90;;;18.20;99.90;;;;;;5020513;28;20401;-84
2021/09/16 12:20:30;;;;;;;8.80;7.90;;;18.40;99.90;;;;;;5020613;28;20397;-84
2021/09/16 12:22:56;;;;;;;9.50;8.60;;;18.50;99.90;;;;;;5035894;28;20890;-83
2021/09/16 12:25:22;;;;;;;8.97;8.10;;;18.70;99.90;;;;;;5035472;28;20450;-84
2021/09/16 12:28:07;;;;;;;9.80;7.90;;;18.80;99.90;;;;;;5018813;28;20733;-84
2021/09/16 12:30:36;;;;;;;11.27;8.83;;;18.80;99.90;;;;;;5019079;28;20474;-84
2021/09/16 12:33:22;;;;;;;11.50;8.97;;;18.60;99.90;;;;;;5018108;28;20880;-84
2021/09/16 12:36:06;;;;;;;11.80;9.43;;;18.60;99.90;;;;;;5018190;28;20430;-84
2021/09/16 12:38:38;;;;;;;10.87;8.60;;;18.80;99.90;;;;;;5020456;28;20744;-84
2021/09/16 12:41:20;;;;;;;9.90;9.00;;;19.00;99.90;;;;;;5019393;28;20397;-83
2021/09/16 12:44:10;;;;;;;14.20;11.10;;;19.00;99.90;;;;;;5037654;28;20422;-83